createdAt,value
2018-11-22T12:15:55.096Z,53.55
2018-11-22T12:16:27.683Z,55.33
2018-11-22T12:17:00.297Z,52.23
2018-11-22T12:17:33.071Z,58.08
2018-11-22T12:18:05.781Z,54.05
2018-11-22T12:18:38.410Z,55.15
2018-11-22T12:19:11.024Z,53.02
2018-11-22T12:19:43.640Z,56.23
2018-11-22T12:20:16.720Z,55.00
2018-11-22T12:20:49.364Z,55.78
2018-11-22T12:21:21.951Z,52.75
2018-11-22T12:21:54.589Z,57.73
2018-11-22T12:22:27.544Z,55.38
2018-11-22T12:23:00.170Z,54.80
2018-11-22T12:23:32.756Z,58.52
2018-11-22T12:24:05.787Z,55.03
2018-11-22T12:24:38.416Z,57.33
2018-11-22T12:25:13.675Z,54.70
2018-11-22T12:25:46.268Z,56.70
2018-11-22T12:26:18.880Z,56.68
2018-11-22T12:26:51.456Z,57.33
2018-11-22T12:27:24.033Z,58.75
2018-11-22T12:27:58.073Z,54.05
2018-11-22T12:28:30.645Z,56.37
2018-11-22T12:29:03.264Z,56.05
2018-11-22T12:29:35.845Z,58.02
2018-11-22T12:30:11.356Z,53.00
2018-11-22T12:30:43.930Z,54.15
2018-11-22T12:31:16.509Z,58.35
2018-11-22T12:31:49.112Z,50.12
2018-11-22T12:32:27.240Z,58.00
2018-11-22T12:33:05.234Z,58.73
2018-11-22T12:33:37.871Z,59.75
2018-11-22T12:34:20.223Z,62.10
2018-11-22T12:34:57.269Z,55.33
2018-11-22T12:35:35.541Z,56.63
2018-11-22T12:36:13.945Z,56.88
2018-11-22T12:36:52.109Z,53.58
2018-11-22T12:37:30.332Z,51.05
2018-11-22T12:38:08.647Z,51.50
2018-11-22T12:38:41.959Z,55.43
2018-11-22T12:39:15.493Z,51.35
2018-11-22T12:39:48.094Z,49.63
2018-11-22T12:40:20.679Z,50.30
2018-11-22T12:40:53.275Z,53.00
2018-11-22T12:41:25.876Z,50.48
2018-11-22T12:41:58.483Z,51.95
2018-11-22T12:42:31.089Z,50.03
2018-11-22T12:43:03.773Z,52.05
2018-11-22T12:43:36.404Z,52.55
2018-11-22T12:44:09.127Z,51.60
2018-11-22T12:44:41.697Z,57.10
2018-11-22T12:45:14.304Z,57.88
2018-11-22T12:45:46.951Z,47.58
2018-11-22T12:46:19.536Z,53.08
2018-11-22T12:46:52.111Z,53.28
2018-11-22T12:47:24.740Z,59.10
2018-11-22T12:47:57.571Z,56.95
2018-11-22T12:48:30.203Z,53.05
2018-11-22T12:49:02.813Z,54.50
2018-11-22T12:49:35.420Z,54.53
2018-11-22T12:50:08.893Z,54.50
2018-11-22T12:50:41.463Z,51.73
2018-11-22T12:51:14.083Z,48.08
2018-11-22T12:51:46.664Z,52.38
2018-11-22T12:52:19.265Z,51.95
2018-11-22T12:52:51.947Z,55.83
2018-11-22T12:53:24.546Z,51.53
2018-11-22T12:53:57.136Z,54.75
2018-11-22T12:54:29.716Z,55.20
2018-11-22T12:55:02.338Z,54.83
2018-11-22T12:55:34.939Z,59.23
2018-11-22T12:56:07.548Z,55.52
2018-11-22T12:56:40.140Z,50.80
2018-11-22T12:57:12.805Z,52.50
2018-11-22T12:57:45.392Z,55.08
2018-11-22T12:58:17.993Z,49.88
2018-11-22T12:58:50.599Z,48.85
2018-11-22T12:59:23.180Z,54.27
2018-11-22T12:59:55.783Z,57.23
2018-11-22T13:00:28.365Z,57.85
2018-11-22T13:01:00.989Z,57.15
2018-11-22T13:01:33.584Z,52.53
2018-11-22T13:02:06.257Z,53.02
2018-11-22T13:02:38.992Z,56.20
2018-11-22T13:03:11.756Z,59.05
2018-11-22T13:03:44.407Z,53.25
2018-11-22T13:04:16.983Z,47.15
2018-11-22T13:04:49.579Z,54.58
2018-11-22T13:05:22.184Z,51.28
2018-11-22T13:05:54.787Z,53.73
2018-11-22T13:06:27.392Z,52.80
2018-11-22T13:07:00.008Z,57.00
2018-11-22T13:07:32.611Z,50.80
2018-11-22T13:08:05.215Z,55.80
2018-11-22T13:08:37.799Z,56.53
2018-11-22T13:09:10.435Z,57.40
2018-11-22T13:09:43.003Z,57.73
2018-11-22T13:10:16.927Z,55.17
2018-11-22T13:10:49.569Z,57.62
2018-11-22T13:11:22.147Z,51.90
2018-11-22T13:11:54.723Z,52.10
2018-11-22T13:12:27.345Z,58.25
2018-11-22T13:12:59.957Z,56.15
2018-11-22T13:13:32.569Z,54.30
2018-11-22T13:14:05.195Z,57.80
2018-11-22T13:14:37.816Z,56.98
2018-11-22T13:15:12.203Z,56.13
2018-11-22T13:15:44.819Z,56.90
2018-11-22T13:16:17.404Z,60.70
2018-11-22T13:16:50.019Z,57.27
2018-11-22T13:17:22.646Z,55.30
2018-11-22T13:17:55.232Z,49.63
2018-11-22T13:18:27.805Z,58.55
2018-11-22T13:19:00.397Z,57.85
2018-11-22T13:19:33.047Z,53.13
2018-11-22T13:20:07.544Z,54.58
2018-11-22T13:20:40.182Z,57.33
2018-11-22T13:21:12.821Z,52.98
2018-11-22T13:21:45.427Z,51.25
2018-11-22T13:22:18.032Z,56.77
2018-11-22T13:22:50.744Z,54.33
2018-11-22T13:23:23.323Z,55.23
2018-11-22T13:23:55.900Z,52.48
2018-11-22T13:24:28.487Z,57.88
2018-11-22T13:25:01.064Z,52.15
2018-11-22T13:25:33.723Z,55.12
2018-11-22T13:26:06.324Z,57.58
2018-11-22T13:26:38.926Z,53.10
2018-11-22T13:27:11.560Z,61.50
2018-11-22T13:27:44.156Z,56.77
2018-11-22T13:28:16.758Z,55.83
2018-11-22T13:28:49.405Z,56.42
2018-11-22T13:29:22.019Z,51.75
2018-11-22T13:29:54.635Z,57.30
2018-11-22T13:30:28.061Z,56.13
2018-11-22T13:31:00.721Z,52.50
2018-11-22T13:31:33.335Z,53.13
2018-11-22T13:32:05.956Z,62.73
2018-11-22T13:32:38.591Z,59.58
2018-11-22T13:33:11.215Z,54.95
2018-11-22T13:33:43.824Z,53.80
2018-11-22T13:34:16.451Z,60.75
2018-11-22T13:34:49.086Z,57.30
2018-11-22T13:35:21.840Z,53.60
2018-11-22T13:35:54.452Z,52.70
2018-11-22T13:36:27.116Z,53.50
2018-11-22T13:36:59.893Z,58.23
2018-11-22T13:37:32.510Z,57.98
2018-11-22T13:38:05.143Z,59.40
2018-11-22T13:38:37.809Z,54.08
2018-11-22T13:39:10.995Z,57.90
2018-11-22T13:39:43.634Z,51.13
2018-11-22T13:40:16.310Z,63.58
2018-11-22T13:40:48.941Z,51.25
2018-11-22T13:41:21.549Z,52.27
2018-11-22T13:41:54.212Z,54.58
2018-11-22T13:42:26.811Z,56.83
2018-11-22T13:42:59.420Z,54.48
2018-11-22T13:43:32.042Z,59.13
2018-11-22T13:44:04.820Z,55.75
2018-11-22T13:44:37.424Z,55.20
2018-11-22T13:45:12.273Z,53.95
2018-11-22T13:45:44.914Z,53.33
2018-11-22T13:46:17.537Z,53.38
2018-11-22T13:46:50.249Z,59.33
2018-11-22T13:47:22.885Z,55.12
2018-11-22T13:47:56.096Z,58.38
2018-11-22T13:48:28.744Z,52.70
2018-11-22T13:49:01.366Z,54.77
2018-11-22T13:49:33.985Z,50.65
2018-11-22T13:50:10.569Z,53.90
2018-11-22T13:50:43.231Z,55.40
2018-11-22T13:51:15.908Z,57.80
2018-11-22T13:51:48.542Z,56.73
2018-11-22T13:52:26.873Z,54.25
2018-11-22T13:53:02.845Z,59.48
2018-11-22T13:53:35.464Z,51.75
2018-11-22T13:54:08.153Z,53.70
2018-11-22T13:54:40.805Z,58.65
2018-11-22T13:55:13.727Z,51.55
2018-11-22T13:55:46.410Z,57.67
2018-11-22T13:56:19.020Z,56.20
2018-11-22T13:56:51.712Z,59.27
2018-11-22T13:57:24.414Z,56.28
2018-11-22T13:57:57.134Z,61.55
2018-11-22T13:58:30.094Z,59.30
2018-11-22T13:59:03.025Z,69.67
2018-11-22T13:59:35.891Z,50.85
2018-11-22T14:00:14.437Z,55.75
2018-11-22T14:00:47.112Z,55.30
2018-11-22T14:01:20.088Z,50.58
2018-11-22T14:01:52.889Z,57.10
2018-11-22T14:02:25.527Z,55.25
2018-11-22T14:03:02.816Z,54.08
2018-11-22T14:03:35.542Z,55.55
2018-11-22T14:04:08.365Z,51.40
2018-11-22T14:04:41.273Z,57.70
2018-11-22T14:05:14.146Z,57.17
2018-11-22T14:05:46.817Z,51.85
2018-11-22T14:06:19.474Z,61.50
2018-11-22T14:06:52.417Z,62.30
2018-11-22T14:07:25.104Z,58.48
2018-11-22T14:07:57.750Z,56.37
2018-11-22T14:08:30.777Z,56.28
2018-11-22T14:09:04.568Z,59.23
2018-11-22T14:09:37.308Z,53.08
2018-11-22T14:10:12.329Z,60.28
2018-11-22T14:10:45.125Z,56.98
2018-11-22T14:11:17.988Z,60.85
2018-11-22T14:11:50.828Z,60.55
2018-11-22T14:12:23.706Z,63.52
2018-11-22T14:12:56.366Z,57.03
2018-11-22T14:13:30.643Z,61.70
2018-11-22T14:14:03.452Z,56.00
2018-11-22T14:14:36.520Z,62.13
2018-11-22T14:15:12.313Z,56.20
2018-11-22T14:15:44.927Z,63.55
2018-11-22T14:16:17.843Z,60.08
2018-11-22T14:16:50.697Z,56.90
2018-11-22T14:17:23.671Z,58.42
2018-11-22T14:17:57.923Z,63.30
2018-11-22T14:18:30.649Z,58.25
2018-11-22T14:19:03.357Z,58.42
2018-11-22T14:19:36.012Z,63.38
2018-11-22T14:20:11.822Z,57.67
2018-11-22T14:20:44.896Z,54.67
2018-11-22T14:21:17.850Z,59.58
2018-11-22T14:21:50.761Z,61.20
2018-11-22T14:22:23.703Z,63.08
2018-11-22T14:22:56.636Z,65.00
2018-11-22T14:23:29.655Z,57.85
2018-11-22T14:24:02.292Z,56.18
2018-11-22T14:24:35.373Z,61.60
2018-11-22T14:25:09.094Z,61.50
2018-11-22T14:25:45.057Z,53.98
2018-11-22T14:26:15.074Z,61.02
2018-11-22T14:26:47.879Z,66.25
2018-11-22T14:27:20.696Z,63.45
2018-11-22T14:27:53.475Z,58.08
2018-11-22T14:28:26.086Z,60.35
2018-11-22T14:28:58.969Z,57.10
2018-11-22T14:29:31.920Z,58.73
2018-11-22T14:30:07.235Z,61.30
2018-11-22T14:30:40.227Z,59.88
2018-11-22T14:31:13.430Z,57.98
2018-11-22T14:31:46.200Z,68.15
2018-11-22T14:32:18.838Z,61.18
2018-11-22T14:32:51.868Z,83.67
2018-11-22T14:33:24.493Z,78.70
2018-11-22T14:33:57.083Z,76.70
2018-11-22T14:34:29.705Z,73.62
2018-11-22T14:35:02.353Z,73.05
2018-11-22T14:35:34.965Z,70.78
2018-11-22T14:36:07.630Z,69.92
2018-11-22T14:36:40.252Z,81.17
2018-11-22T14:37:12.863Z,77.45
2018-11-22T14:37:45.666Z,78.57
2018-11-22T14:38:18.325Z,87.97
2018-11-22T14:39:03.411Z,93.12
2018-11-22T14:39:36.021Z,78.25
2018-11-22T14:40:11.492Z,73.65
2018-11-22T14:40:44.098Z,74.67
2018-11-22T14:41:16.739Z,73.10
2018-11-22T14:41:49.386Z,80.55
2018-11-22T14:42:22.238Z,78.65
2018-11-22T14:42:55.425Z,75.47
2018-11-22T14:43:28.069Z,81.92
2018-11-22T14:44:00.655Z,87.97
2018-11-22T14:44:33.273Z,98.05
2018-11-22T14:45:07.011Z,139.37
2018-11-22T14:45:39.648Z,99.28
2018-11-22T14:46:12.261Z,100.70
2018-11-22T14:46:44.929Z,87.53
2018-11-22T14:47:17.604Z,84.40
2018-11-22T14:47:51.073Z,89.07
2018-11-22T14:48:23.735Z,74.72
2018-11-22T14:48:56.357Z,80.00
2018-11-22T14:49:28.971Z,78.20
2018-11-22T14:50:03.748Z,112.90
2018-11-22T14:50:39.625Z,86.70
2018-11-22T14:51:25.507Z,83.72
2018-11-22T14:51:58.256Z,70.10
2018-11-22T14:52:31.082Z,69.00
2018-11-22T14:53:07.995Z,74.03
2018-11-22T14:53:40.733Z,76.92
2018-11-22T14:54:13.599Z,82.00
2018-11-22T14:54:46.573Z,68.25
2018-11-22T14:55:19.775Z,77.60
2018-11-22T14:55:53.144Z,76.15
2018-11-22T14:56:26.111Z,78.33
2018-11-22T14:56:59.677Z,81.85
2018-11-22T14:57:32.476Z,78.55
2018-11-22T14:58:05.509Z,84.80
2018-11-22T14:58:38.448Z,72.40
2018-11-22T14:59:11.817Z,63.92
2018-11-22T14:59:44.946Z,63.10
2018-11-22T15:00:17.888Z,72.12
2018-11-22T15:00:51.237Z,67.35
2018-11-22T15:01:24.106Z,66.30
2018-11-22T15:01:57.110Z,63.68
2018-11-22T15:02:29.755Z,63.35
2018-11-22T15:03:02.689Z,63.85
2018-11-22T15:03:35.647Z,65.52
2018-11-22T15:04:08.273Z,63.98
2018-11-22T15:04:41.045Z,61.80
2018-11-22T15:05:14.191Z,70.37
2018-11-22T15:05:47.302Z,67.32
2018-11-22T15:06:20.166Z,71.77
2018-11-22T15:06:53.306Z,75.72
2018-11-22T15:07:28.777Z,64.00
2018-11-22T15:07:58.909Z,71.60
2018-11-22T15:08:31.531Z,71.33
2018-11-22T15:09:06.971Z,95.12
2018-11-22T15:09:39.580Z,102.12
2018-11-22T15:10:14.347Z,99.85
2018-11-22T15:10:47.330Z,93.60
2018-11-22T15:11:19.995Z,86.45
2018-11-22T15:11:52.691Z,82.78
2018-11-22T15:12:25.295Z,83.35
2018-11-22T15:12:58.416Z,76.55
2018-11-22T15:13:31.198Z,73.92
2018-11-22T15:14:04.133Z,65.50
2018-11-22T15:14:36.761Z,65.60
2018-11-22T15:15:12.353Z,68.80
2018-11-22T15:15:45.011Z,69.95
2018-11-22T15:16:17.774Z,65.35
2018-11-22T15:16:50.431Z,63.60
2018-11-22T15:17:23.069Z,60.90
2018-11-22T15:17:55.717Z,67.05
2018-11-22T15:18:28.348Z,67.90
2018-11-22T15:19:00.985Z,60.75
2018-11-22T15:19:33.588Z,67.12
2018-11-22T15:20:08.060Z,64.47
2018-11-22T15:20:40.700Z,62.60
2018-11-22T15:21:13.328Z,65.15
2018-11-22T15:21:45.954Z,69.70
2018-11-22T15:22:18.816Z,60.83
2018-11-22T15:22:52.374Z,70.42
2018-11-22T15:23:25.429Z,65.45
2018-11-22T15:23:58.457Z,63.98
2018-11-22T15:24:31.216Z,75.95
2018-11-22T15:25:04.585Z,69.15
2018-11-22T15:25:37.574Z,67.82
2018-11-22T15:26:10.789Z,67.08
2018-11-22T15:26:43.427Z,68.40
2018-11-22T15:27:16.525Z,71.65
2018-11-22T15:27:50.387Z,68.67
2018-11-22T15:28:23.215Z,67.85
2018-11-22T15:28:55.976Z,70.95
2018-11-22T15:29:28.853Z,65.70
2018-11-22T15:30:02.376Z,62.90
2018-11-22T15:30:36.026Z,62.10
2018-11-22T15:31:08.656Z,69.03
2018-11-22T15:31:41.758Z,63.28
2018-11-22T15:32:14.963Z,55.85
2018-11-22T15:32:47.680Z,60.08
2018-11-22T15:33:20.300Z,58.80
2018-11-22T15:33:52.958Z,62.27
2018-11-22T15:34:25.604Z,60.12
2018-11-22T15:34:58.280Z,64.03
2018-11-22T15:35:31.321Z,62.27
2018-11-22T15:36:03.805Z,65.20
2018-11-22T15:36:36.443Z,64.32
2018-11-22T15:37:09.118Z,58.20
2018-11-22T15:37:41.809Z,60.38
2018-11-22T15:38:14.442Z,66.40
2018-11-22T15:38:47.658Z,60.95
2018-11-22T15:39:20.274Z,55.55
2018-11-22T15:39:53.742Z,64.42
2018-11-22T15:40:27.121Z,59.50
2018-11-22T15:41:00.316Z,61.25
2018-11-22T15:41:33.280Z,64.55
2018-11-22T15:42:06.567Z,64.70
2018-11-22T15:42:39.912Z,72.35
2018-11-22T15:43:12.969Z,69.55
2018-11-22T15:43:46.171Z,60.65
2018-11-22T15:44:19.063Z,72.95
2018-11-22T15:44:51.875Z,64.47
2018-11-22T15:45:26.341Z,64.25
2018-11-22T15:45:59.270Z,76.28
2018-11-22T15:46:32.599Z,65.72
2018-11-22T15:47:06.372Z,70.22
2018-11-22T15:47:45.321Z,58.68
2018-11-22T15:48:18.233Z,67.12
2018-11-22T15:48:51.001Z,59.27
2018-11-22T15:49:23.635Z,60.20
2018-11-22T15:49:57.714Z,59.93
2018-11-22T15:50:31.439Z,57.78
2018-11-22T15:51:04.693Z,67.08
2018-11-22T15:51:37.988Z,60.63
2018-11-22T15:52:11.248Z,65.52
2018-11-22T15:52:44.811Z,68.67
2018-11-22T15:53:18.029Z,64.42
2018-11-22T15:53:51.858Z,67.10
2018-11-22T15:54:24.942Z,65.08
2018-11-22T15:54:57.929Z,59.55
2018-11-22T15:55:31.114Z,66.45
2018-11-22T15:56:04.317Z,66.92
2018-11-22T15:56:40.932Z,60.85
2018-11-22T15:57:21.721Z,56.70
2018-11-22T15:58:02.061Z,64.58
2018-11-22T15:58:41.803Z,55.52
2018-11-22T15:59:21.447Z,65.97
2018-11-22T16:00:00.672Z,59.60
2018-11-22T16:00:40.289Z,69.58
2018-11-22T16:01:21.883Z,70.70
2018-11-22T16:02:03.881Z,65.17
2018-11-22T16:02:45.058Z,68.15
2018-11-22T16:03:27.037Z,64.17
2018-11-22T16:04:09.652Z,68.35
2018-11-22T16:04:50.719Z,69.27
2018-11-22T16:05:33.018Z,66.85
2018-11-22T16:06:14.645Z,65.08
2018-11-22T16:06:54.170Z,61.53
2018-11-22T16:07:36.111Z,78.20
2018-11-22T16:08:17.091Z,69.80
2018-11-22T16:08:57.091Z,71.53
2018-11-22T16:09:37.971Z,69.15
2018-11-22T16:10:26.845Z,79.80
2018-11-22T16:11:02.265Z,103.72
2018-11-22T16:11:41.056Z,99.80
2018-11-22T16:12:20.383Z,90.38
2018-11-22T16:13:01.860Z,85.95
2018-11-22T16:13:42.095Z,80.95
2018-11-22T16:14:22.297Z,75.08
2018-11-22T16:15:03.035Z,78.05
2018-11-22T16:15:44.085Z,87.78
2018-11-22T16:16:22.712Z,87.35
2018-11-22T16:17:03.478Z,99.70
2018-11-22T16:17:45.192Z,94.50
2018-11-22T16:18:25.414Z,83.47
2018-11-22T16:19:05.708Z,69.60
2018-11-22T16:19:47.506Z,73.40
2018-11-22T16:20:29.761Z,69.90
2018-11-22T16:21:10.967Z,73.00
2018-11-22T16:21:52.010Z,72.17
2018-11-22T16:22:32.568Z,74.10
2018-11-22T16:23:12.677Z,79.12
2018-11-22T16:23:53.751Z,73.02
2018-11-22T16:24:34.781Z,81.02
2018-11-22T16:25:16.769Z,81.85
2018-11-22T16:25:58.730Z,72.67
2018-11-22T16:26:39.475Z,78.95
2018-11-22T16:27:20.299Z,75.22
2018-11-22T16:27:59.495Z,69.47
2018-11-22T16:28:40.366Z,73.15
2018-11-22T16:29:22.833Z,69.90
2018-11-22T16:30:02.163Z,80.22
2018-11-22T16:30:42.366Z,59.90
2018-11-22T16:31:22.212Z,64.55
2018-11-22T16:32:03.246Z,65.47
2018-11-22T16:32:44.890Z,74.62
2018-11-22T16:33:25.012Z,65.72
2018-11-22T16:34:05.055Z,71.10
2018-11-22T16:34:47.376Z,70.45
2018-11-22T16:35:33.204Z,70.37
2018-11-22T16:36:10.101Z,62.48
2018-11-22T16:36:51.699Z,65.20
2018-11-22T16:37:32.090Z,77.00
2018-11-22T16:38:12.774Z,66.33
2018-11-22T16:38:54.205Z,62.30
2018-11-22T16:39:34.152Z,62.90
2018-11-22T16:40:16.703Z,63.00
2018-11-22T16:40:56.519Z,59.88
2018-11-22T16:41:36.826Z,61.80
2018-11-22T16:42:16.057Z,63.60
2018-11-22T16:42:56.393Z,68.97
2018-11-22T16:43:35.434Z,70.87
2018-11-22T16:44:14.661Z,66.22
2018-11-22T16:44:55.420Z,63.48
2018-11-22T16:45:36.633Z,67.22
2018-11-22T16:46:14.182Z,64.15
2018-11-22T16:46:51.563Z,73.05
2018-11-22T16:47:32.333Z,67.05
2018-11-22T16:48:14.809Z,71.70
2018-11-22T16:48:54.260Z,60.78
2018-11-22T16:49:35.245Z,67.22
2018-11-22T16:50:16.959Z,60.90
2018-11-22T16:50:58.161Z,71.67
2018-11-22T16:51:38.215Z,66.50
2018-11-22T16:52:19.000Z,65.75
2018-11-22T16:53:00.888Z,69.17
2018-11-22T16:53:40.845Z,70.32
2018-11-22T16:54:20.893Z,69.70
2018-11-22T16:55:01.761Z,75.65
2018-11-22T16:55:39.162Z,77.12
2018-11-22T16:56:19.596Z,74.97
2018-11-22T16:57:00.653Z,68.20
2018-11-22T16:57:40.780Z,69.90
2018-11-22T16:58:19.927Z,66.05
2018-11-22T16:59:01.996Z,65.37
2018-11-22T16:59:41.949Z,69.80
2018-11-22T17:00:27.709Z,66.35
2018-11-22T17:01:07.903Z,71.85
2018-11-22T17:01:47.303Z,74.85
2018-11-22T17:02:27.553Z,75.85
2018-11-22T17:03:08.878Z,71.55
2018-11-22T17:03:50.034Z,62.08
2018-11-22T17:04:30.249Z,64.90
2018-11-22T17:05:09.669Z,74.70
2018-11-22T17:05:48.246Z,70.22
2018-11-22T17:06:26.988Z,68.70
2018-11-22T17:07:06.612Z,73.65
2018-11-22T17:07:45.324Z,69.80
2018-11-22T17:08:24.135Z,69.27
2018-11-22T17:09:02.363Z,77.70
2018-11-22T17:09:40.734Z,75.83
2018-11-22T17:10:22.650Z,78.70
2018-11-22T17:11:02.315Z,85.12
2018-11-22T17:11:41.202Z,76.30
2018-11-22T17:12:21.357Z,73.65
2018-11-22T17:13:02.385Z,79.72
2018-11-22T17:13:41.945Z,77.35
2018-11-22T17:14:21.723Z,82.80
2018-11-22T17:15:01.641Z,68.65
2018-11-22T17:15:42.144Z,84.62
2018-11-22T17:16:20.984Z,75.37
2018-11-22T17:17:00.138Z,75.50
2018-11-22T17:17:39.614Z,71.25
2018-11-22T17:18:18.212Z,75.80
2018-11-22T17:18:58.102Z,79.03
2018-11-22T17:19:37.036Z,73.72
2018-11-22T17:20:16.995Z,75.65
2018-11-22T17:20:54.526Z,70.22
2018-11-22T17:21:33.202Z,68.83
2018-11-22T17:22:12.419Z,72.15
2018-11-22T17:22:53.006Z,66.80
2018-11-22T17:23:32.858Z,71.47
2018-11-22T17:24:12.918Z,71.97
2018-11-22T17:24:52.010Z,81.65
2018-11-22T17:25:30.673Z,73.65
2018-11-22T17:26:10.156Z,77.05
2018-11-22T17:26:48.699Z,75.62
2018-11-22T17:27:28.243Z,73.40
2018-11-22T17:28:07.789Z,76.55
2018-11-22T17:28:47.514Z,76.55
2018-11-22T17:29:26.949Z,70.45
2018-11-22T17:30:05.093Z,75.92
2018-11-22T17:30:44.386Z,76.95
2018-11-22T17:31:23.843Z,73.97
2018-11-22T17:32:02.848Z,76.60
2018-11-22T17:32:42.548Z,71.80
2018-11-22T17:33:21.364Z,79.65
2018-11-22T17:33:59.660Z,68.78
2018-11-22T17:34:39.103Z,75.22
2018-11-22T17:35:19.656Z,68.20
2018-11-22T17:35:59.327Z,65.15
2018-11-22T17:36:38.872Z,72.15
2018-11-22T17:37:17.453Z,74.10
2018-11-22T17:38:01.263Z,68.45
2018-11-22T17:38:41.219Z,63.50
2018-11-22T17:39:18.875Z,69.72
2018-11-22T17:39:57.591Z,65.75
2018-11-22T17:40:38.425Z,68.57
2018-11-22T17:41:17.759Z,74.00
2018-11-22T17:41:55.595Z,77.78
2018-11-22T17:42:35.713Z,71.85
2018-11-22T17:43:14.280Z,74.25
2018-11-22T17:43:54.330Z,73.22
2018-11-22T17:44:34.406Z,68.28
2018-11-22T17:45:19.674Z,71.85
2018-11-22T17:45:58.310Z,71.57
2018-11-22T17:46:38.106Z,71.55
2018-11-22T17:47:18.583Z,71.92
2018-11-22T17:47:57.860Z,66.90
2018-11-22T17:48:36.638Z,70.90
2018-11-22T17:49:15.526Z,76.45
2018-11-22T17:49:54.794Z,70.52
2018-11-22T17:50:37.693Z,61.77
2018-11-22T17:51:17.746Z,64.95
2018-11-22T17:51:55.578Z,59.42
2018-11-22T17:52:34.909Z,64.80
2018-11-22T17:53:12.281Z,74.62
2018-11-22T17:53:52.178Z,74.67
2018-11-22T17:54:32.480Z,66.07
2018-11-22T17:55:18.498Z,67.62
2018-11-22T17:55:57.677Z,68.87
2018-11-22T17:56:37.253Z,67.53
2018-11-22T17:57:17.128Z,63.23
2018-11-22T17:57:56.411Z,73.35
2018-11-22T17:58:34.695Z,62.67
2018-11-22T17:59:12.201Z,72.87
2018-11-22T17:59:51.028Z,79.10
2018-11-22T18:00:31.883Z,71.47
2018-11-22T18:01:14.710Z,66.65
2018-11-22T18:01:51.810Z,63.92
2018-11-22T18:02:31.330Z,64.03
2018-11-22T18:03:10.272Z,66.60
2018-11-22T18:03:51.458Z,76.67
2018-11-22T18:04:32.032Z,62.58
2018-11-22T18:05:13.097Z,73.20
2018-11-22T18:05:53.965Z,66.28
2018-11-22T18:06:36.115Z,64.77
2018-11-22T18:07:18.549Z,72.12
2018-11-22T18:07:59.225Z,67.30
2018-11-22T18:08:39.629Z,69.40
2018-11-22T18:09:21.882Z,80.28
2018-11-22T18:10:04.328Z,69.97
2018-11-22T18:10:46.871Z,67.37
2018-11-22T18:11:27.291Z,68.37
2018-11-22T18:12:08.529Z,69.75
2018-11-22T18:12:49.983Z,73.00
2018-11-22T18:13:31.155Z,67.62
2018-11-22T18:14:12.647Z,80.57
2018-11-22T18:14:54.462Z,71.92
2018-11-22T18:15:37.202Z,73.40
2018-11-22T18:16:15.078Z,79.75
2018-11-22T18:16:56.507Z,73.72
2018-11-22T18:17:37.946Z,71.67
2018-11-22T18:18:17.349Z,70.50
2018-11-22T18:18:58.644Z,63.95
2018-11-22T18:19:39.871Z,79.37
2018-11-22T18:20:22.087Z,73.70
2018-11-22T18:21:03.531Z,71.07
2018-11-22T18:21:44.182Z,69.82
2018-11-22T18:22:24.502Z,72.92
2018-11-22T18:23:11.246Z,75.47
2018-11-22T18:23:47.298Z,74.17
2018-11-22T18:24:28.236Z,75.32
2018-11-22T18:25:08.558Z,78.02
2018-11-22T18:25:49.659Z,77.32
2018-11-22T18:26:30.479Z,74.07
2018-11-22T18:27:11.197Z,75.37
2018-11-22T18:27:50.167Z,76.77
2018-11-22T18:28:30.434Z,72.97
2018-11-22T18:29:11.172Z,74.42
2018-11-22T18:29:51.546Z,69.60
2018-11-22T18:30:32.570Z,82.88
2018-11-22T18:31:13.563Z,84.00
2018-11-22T18:31:55.710Z,77.27
2018-11-22T18:32:34.615Z,78.92
2018-11-22T18:33:14.789Z,72.53
2018-11-22T18:33:56.249Z,74.97
2018-11-22T18:34:35.067Z,80.95
2018-11-22T18:35:09.757Z,76.35
2018-11-22T18:35:42.376Z,83.92
2018-11-22T18:36:14.996Z,84.75
2018-11-22T18:36:47.613Z,74.72
2018-11-22T18:37:20.237Z,69.80
2018-11-22T18:37:52.919Z,78.12
2018-11-22T18:38:25.549Z,83.17
2018-11-22T18:38:58.223Z,81.90
2018-11-22T18:39:30.841Z,76.97
2018-11-22T18:40:03.949Z,86.72
2018-11-22T18:40:38.114Z,87.45
2018-11-22T18:41:10.761Z,88.95
2018-11-22T18:41:43.467Z,91.72
2018-11-22T18:42:16.140Z,80.57
2018-11-22T18:42:49.679Z,89.85
2018-11-22T18:43:22.333Z,88.10
2018-11-22T18:43:54.972Z,87.40
2018-11-22T18:44:27.599Z,81.67
2018-11-22T18:45:00.218Z,86.53
2018-11-22T18:45:35.205Z,91.90
2018-11-22T18:46:08.102Z,75.35
2018-11-22T18:46:40.953Z,83.85
2018-11-22T18:47:13.864Z,81.08
2018-11-22T18:47:46.548Z,82.20
2018-11-22T18:48:20.070Z,77.30
2018-11-22T18:48:52.823Z,78.95
2018-11-22T18:49:25.564Z,89.30
2018-11-22T18:49:58.443Z,80.90
2018-11-22T18:50:32.168Z,81.47
2018-11-22T18:51:05.110Z,89.75
2018-11-22T18:51:37.743Z,78.70
2018-11-22T18:52:10.441Z,83.80
2018-11-22T18:52:43.787Z,89.07
2018-11-22T18:53:16.583Z,75.87
2018-11-22T18:53:49.300Z,75.75
2018-11-22T18:54:22.009Z,82.47
2018-11-22T18:54:54.767Z,88.95
2018-11-22T18:55:27.542Z,80.12
2018-11-22T18:56:00.245Z,81.35
2018-11-22T18:56:36.969Z,79.20
2018-11-22T18:57:05.830Z,75.67
2018-11-22T18:57:38.705Z,77.35
2018-11-22T18:58:11.448Z,81.05
2018-11-22T18:58:44.077Z,89.50
2018-11-22T18:59:16.968Z,83.60
2018-11-22T18:59:49.615Z,74.07
2018-11-22T19:00:24.858Z,80.03
2018-11-22T19:00:57.517Z,79.60
2018-11-22T19:01:30.222Z,82.40
2018-11-22T19:02:02.910Z,90.55
2018-11-22T19:02:35.620Z,83.62
2018-11-22T19:03:09.653Z,83.20
2018-11-22T19:03:42.322Z,78.52
2018-11-22T19:04:14.970Z,91.78
2018-11-22T19:04:47.812Z,78.87
2018-11-22T19:05:20.552Z,77.20
2018-11-22T19:05:53.344Z,78.72
2018-11-22T19:06:26.224Z,82.90
2018-11-22T19:06:59.062Z,87.30
2018-11-22T19:07:31.987Z,82.75
2018-11-22T19:08:05.172Z,86.30
2018-11-22T19:08:37.840Z,82.20
2018-11-22T19:09:10.601Z,90.45
2018-11-22T19:09:43.533Z,79.65
2018-11-22T19:10:18.361Z,86.02
2018-11-22T19:10:51.539Z,90.22
2018-11-22T19:11:24.210Z,79.70
2018-11-22T19:11:57.076Z,91.22
2018-11-22T19:12:29.858Z,85.07
2018-11-22T19:13:04.007Z,86.05
2018-11-22T19:13:36.677Z,80.35
2018-11-22T19:14:09.394Z,88.52
2018-11-22T19:14:42.051Z,88.50
2018-11-22T19:15:15.924Z,81.97
2018-11-22T19:15:48.993Z,88.17
2018-11-22T19:16:21.654Z,81.20
2018-11-22T19:16:54.627Z,81.57
2018-11-22T19:17:27.266Z,83.22
2018-11-22T19:18:00.143Z,84.83
2018-11-22T19:18:32.773Z,91.12
2018-11-22T19:19:05.719Z,81.00
2018-11-22T19:19:38.340Z,92.47
2018-11-22T19:20:15.316Z,81.45
2018-11-22T19:20:47.945Z,84.30
2018-11-22T19:21:20.573Z,82.85
2018-11-22T19:21:53.273Z,92.80
2018-11-22T19:22:26.265Z,98.78
2018-11-22T19:22:59.999Z,93.03
2018-11-22T19:23:32.609Z,95.92
2018-11-22T19:24:05.395Z,97.08
2018-11-22T19:24:38.030Z,86.63
2018-11-22T19:25:10.679Z,83.42
2018-11-22T19:25:43.511Z,98.40
2018-11-22T19:26:16.195Z,95.38
2018-11-22T19:26:49.382Z,86.45
2018-11-22T19:27:22.211Z,87.17
2018-11-22T19:27:55.851Z,97.15
2018-11-22T19:28:28.918Z,89.37
2018-11-22T19:29:01.579Z,91.28
2018-11-22T19:29:34.408Z,91.75
2018-11-22T19:30:10.822Z,88.40
2018-11-22T19:30:45.205Z,91.82
2018-11-22T19:31:17.957Z,88.67
2018-11-22T19:31:51.038Z,88.95
2018-11-22T19:32:23.717Z,97.50
2018-11-22T19:32:57.721Z,88.95
2018-11-22T19:33:30.328Z,96.30
2018-11-22T19:34:03.088Z,90.53
2018-11-22T19:34:35.733Z,93.17
2018-11-22T19:35:09.820Z,88.67
2018-11-22T19:35:43.880Z,97.65
2018-11-22T19:36:16.758Z,90.87
2018-11-22T19:36:49.417Z,99.20
2018-11-22T19:37:22.096Z,101.10
2018-11-22T19:37:54.745Z,94.50
2018-11-22T19:38:27.372Z,95.25
2018-11-22T19:39:00.033Z,105.07
2018-11-22T19:39:32.690Z,95.87
2018-11-22T19:40:08.975Z,101.85
2018-11-22T19:40:42.362Z,101.90
2018-11-22T19:41:15.171Z,100.33
2018-11-22T19:41:47.865Z,97.88
2018-11-22T19:42:20.567Z,113.88
2018-11-22T19:42:55.294Z,110.95
2018-11-22T19:43:27.919Z,107.27
2018-11-22T19:44:00.532Z,114.25
2018-11-22T19:44:33.199Z,110.55
2018-11-22T19:45:08.425Z,105.07
2018-11-22T19:45:43.606Z,97.27
2018-11-22T19:46:16.247Z,101.55
2018-11-22T19:46:48.899Z,107.22
2018-11-22T19:47:23.147Z,106.87
2018-11-22T19:47:55.779Z,108.52
2018-11-22T19:48:28.439Z,97.05
2018-11-22T19:49:01.316Z,99.65
2018-11-22T19:49:33.944Z,108.35
2018-11-22T19:50:09.418Z,103.25